Time;durP1;ratioP1;P1;durP2;ratioP2;P2;SDS_P1;SDS_P2;PMS_P1;PMS_P2;Temp;Humidity;BMP_temperature;BMP_pressure;BME280_temperature;BME280_humidity;BME280_pressure;Samples;Min_cycle;Max_cycle;Signal;HPM_P1;HPM_P2
2021/09/01 00:00:48;;;;;;;19.25;4.68;;;;;;;14.46;75.07;103050.59;4995057;28;20483;-75
2021/09/01 00:03:14;;;;;;;17.00;3.80;;;;;;;14.45;75.57;103060.44;4994657;28;20038;-74
2021/09/01 00:05:39;;;;;;;11.80;3.80;;;;;;;14.45;75.60;103051.53;4995539;28;20057;-74
2021/09/01 00:08:05;;;;;;;14.43;4.15;;;;;;;14.42;76.42;103055.31;5010396;28;20034;-74
2021/09/01 00:10:30;;;;;;;17.02;4.47;;;;;;;14.41;76.05;103050.06;4994696;28;20062;-74
2021/09/01 00:12:55;;;;;;;16.52;5.57;;;;;;;14.41;75.66;103056.28;4993812;28;20041;-73
2021/09/01 00:15:21;;;;;;;14.27;4.18;;;;;;;14.43;75.01;103048.13;4993023;28;20481;-75
2021/09/01 00:17:46;;;;;;;13.77;4.38;;;;;;;14.46;74.76;103050.59;4994725;28;20030;-74
2021/09/01 00:20:12;;;;;;;19.23;4.80;;;;;;;14.49;74.39;103052.19;4994717;28;20056;-74
2021/09/01 00:22:38;;;;;;;16.50;4.28;;;;;;;14.49;74.66;103058.38;4994382;28;20490;-74
2021/09/01 00:25:06;;;;;;;18.70;4.68;;;;;;;14.50;74.04;103059.28;4994851;28;20086;-74
2021/09/01 00:27:31;;;;;;;19.10;4.47;;;;;;;14.49;73.22;103049.50;4994537;28;20097;-74
2021/09/01 00:29:56;;;;;;;13.02;4.32;;;;;;;14.51;73.43;103050.25;4994952;28;20395;-74
2021/09/01 00:32:22;;;;;;;16.13;4.47;;;;;;;14.51;73.30;103050.25;4993934;28;20442;-74
2021/09/01 00:34:47;;;;;;;19.83;4.45;;;;;;;14.49;73.66;103042.31;4993401;28;20045;-74
2021/09/01 00:37:12;;;;;;;10.45;3.78;;;;;;;14.48;73.95;103050.47;4994112;28;20030;-74
2021/09/01 00:39:38;;;;;;;19.58;4.57;;;;;;;14.43;74.04;103054.31;4994188;28;20026;-74
2021/09/01 00:42:07;;;;;;;12.80;4.18;;;;;;;14.41;73.44;103048.25;4994545;28;20058;-74
2021/09/01 00:44:33;;;;;;;17.02;4.82;;;;;;;14.40;74.62;103053.72;4993925;28;20058;-74
2021/09/01 00:46:59;;;;;;;14.45;4.88;;;;;;;14.37;74.51;103051.25;4994450;28;20042;-74
2021/09/01 00:49:28;;;;;;;17.55;4.18;;;;;;;14.35;73.79;103045.16;4993700;28;20042;-74
2021/09/01 00:51:55;;;;;;;16.95;5.22;;;;;;;14.33;73.97;103045.28;4994459;28;20037;-75
2021/09/01 00:54:23;;;;;;;14.52;4.78;;;;;;;14.31;73.90;103046.34;4993612;28;20034;-75
2021/09/01 00:56:52;;;;;;;13.75;3.95;;;;;;;14.28;75.15;103042.91;4994335;28;20471;-75
2021/09/01 00:59:39;;;;;;;15.43;4.63;;;;;;;14.25;74.04;103050.31;4994065;28;20052;-74
2021/09/01 01:02:05;;;;;;;13.35;4.22;;;;;;;14.23;73.59;103049.56;4994496;28;20031;-73
2021/09/01 01:04:32;;;;;;;17.42;4.20;;;;;;;14.22;74.44;103045.16;4993634;28;20049;-75
2021/09/01 01:07:03;;;;;;;16.23;5.00;;;;;;;14.22;73.19;103051.38;4994172;28;20045;-75
2021/09/01 01:09:29;;;;;;;16.75;4.43;;;;;;;14.24;72.85;103048.59;4993556;28;20388;-73
2021/09/01 01:12:24;;;;;;;13.05;4.00;;;;;;;14.27;73.39;103045.69;4994099;28;20427;-74
2021/09/01 01:14:52;;;;;;;17.25;4.40;;;;;;;14.26;72.84;103044.84;4989291;28;20047;-74
2021/09/01 01:17:19;;;;;;;14.40;4.05;;;;;;;14.26;73.68;103050.19;4994264;28;20129;-74
2021/09/01 01:19:51;;;;;;;22.40;4.30;;;;;;;14.25;72.61;103055.66;4993047;28;20039;-74
2021/09/01 01:22:17;;;;;;;;;;;;;;;14.25;73.71;103052.97;4994526;28;20076;-75
2021/09/01 01:24:53;;;;;;;16.92;4.25;;;;;;;14.24;73.09;103048.59;4992170;28;20542;-74
2021/09/01 01:27:31;;;;;;;15.95;4.60;;;;;;;14.24;72.98;103041.44;4993894;28;20034;-74
2021/09/01 01:30:05;;;;;;;10.52;3.78;;;;;;;14.25;72.19;103048.47;4993545;28;20033;-74
2021/09/01 01:32:30;;;;;;;15.40;3.97;;;;;;;14.25;71.68;103044.94;4992929;28;20034;-74
2021/09/01 01:34:56;;;;;;;9.75;3.70;;;;;;;14.23;71.87;103044.22;4993781;28;20044;-74
2021/09/01 01:37:21;;;;;;;15.40;3.88;;;;;;;14.21;69.63;103041.66;4993610;28;20033;-74
2021/09/01 01:39:46;;;;;;;10.13;3.30;;;;;;;14.25;69.26;103047.63;4993068;28;20030;-74
2021/09/01 01:42:12;;;;;;;12.20;3.72;;;;;;;14.26;69.28;103042.16;4993402;28;20065;-74
2021/09/01 01:44:37;;;;;;;9.50;3.33;;;;;;;14.26;70.34;103036.81;4992769;28;20038;-75
2021/09/01 01:47:03;;;;;;;10.00;3.60;;;;;;;14.25;70.64;103045.78;4993191;28;20041;-74
2021/09/01 01:49:29;;;;;;;11.27;3.78;;;;;;;14.22;70.99;103040.66;4992077;28;20038;-75
2021/09/01 01:51:54;;;;;;;8.43;3.15;;;;;;;14.20;70.29;103044.44;4993261;28;20483;-74
2021/09/01 01:54:20;;;;;;;12.63;3.17;;;;;;;14.18;70.65;103036.50;4993389;28;20030;-74
2021/09/01 01:56:45;;;;;;;10.10;3.78;;;;;;;14.17;70.63;103031.28;4992393;28;20034;-74
2021/09/01 01:59:10;;;;;;;12.02;3.33;;;;;;;14.14;71.08;103043.03;4993290;28;20030;-74
2021/09/01 02:01:36;;;;;;;16.90;3.78;;;;;;;14.13;70.84;103032.44;4993100;28;20046;-74
2021/09/01 02:04:01;;;;;;;7.97;3.28;;;;;;;14.11;70.67;103024.53;4993630;28;20144;-74
2021/09/01 02:06:27;;;;;;;7.95;3.10;;;;;;;14.11;72.30;103028.03;4993366;28;20428;-74
2021/09/01 02:08:52;;;;;;;13.02;3.65;;;;;;;14.07;72.77;103037.25;4992793;28;20034;-74
2021/09/01 02:11:17;;;;;;;11.07;3.72;;;;;;;14.06;72.34;103037.38;4994168;28;20085;-74
2021/09/01 02:13:43;;;;;;;12.55;3.67;;;;;;;14.04;72.93;103034.78;4992905;28;20062;-75
2021/09/01 02:16:08;;;;;;;10.95;3.80;;;;;;;14.04;73.70;103034.78;4993623;28;20117;-74
2021/09/01 02:18:33;;;;;;;10.65;3.85;;;;;;;14.01;73.96;103036.84;4992719;28;20027;-75
2021/09/01 02:20:59;;;;;;;15.45;4.40;;;;;;;14.00;73.43;103038.69;4993281;28;20046;-74
2021/09/01 02:23:24;;;;;;;12.98;3.70;;;;;;;13.99;73.28;103033.41;4993171;28;20378;-74
2021/09/01 02:25:49;;;;;;;8.20;3.40;;;;;;;13.98;73.95;103037.06;4992455;28;20454;-74
2021/09/01 02:28:15;;;;;;;10.73;3.78;;;;;;;13.98;74.70;103034.38;4993178;28;20030;-74
2021/09/01 02:30:40;;;;;;;13.05;3.70;;;;;;;13.97;75.67;103038.88;4991976;28;20041;-75
2021/09/01 02:33:05;;;;;;;9.07;3.97;;;;;;;13.95;75.61;103039.97;4992686;28;20034;-74
2021/09/01 02:35:31;;;;;;;15.45;4.18;;;;;;;13.94;76.07;103039.09;4992810;28;20410;-74
2021/09/01 02:37:57;;;;;;;16.58;4.25;;;;;;;13.92;76.28;103038.34;4993111;28;20035;-74
2021/09/01 02:40:22;;;;;;;12.18;3.72;;;;;;;13.89;76.27;103031.38;4992783;28;20160;-74
2021/09/01 02:42:48;;;;;;;11.07;3.72;;;;;;;13.87;76.36;103029.78;4992351;28;20501;-74
2021/09/01 02:45:16;;;;;;;10.38;4.28;;;;;;;13.85;76.91;103037.94;4992910;28;20041;-74
2021/09/01 02:47:42;;;;;;;16.35;4.43;;;;;;;13.83;76.22;103037.16;4992403;28;20038;-75
2021/09/01 02:50:08;;;;;;;13.43;4.47;;;;;;;13.81;76.92;103032.88;4991712;28;20419;-74
2021/09/01 02:52:33;;;;;;;13.98;4.70;;;;;;;13.81;76.76;103044.44;4992603;28;20070;-75
2021/09/01 02:54:59;;;;;;;11.00;3.83;;;;;;;13.80;76.90;103039.22;4992911;28;20498;-74
2021/09/01 02:57:25;;;;;;;10.88;3.80;;;;;;;13.79;77.99;103046.34;4992786;28;20104;-74
2021/09/01 02:59:50;;;;;;;8.43;3.50;;;;;;;13.77;77.63;103040.28;4992149;28;20059;-74
2021/09/01 03:02:16;;;;;;;11.70;4.30;;;;;;;13.77;77.57;103042.09;4996573;28;20446;-74
2021/09/01 03:04:41;;;;;;;14.52;4.10;;;;;;;13.77;77.57;103042.09;4995855;28;20042;-75
2021/09/01 03:07:06;;;;;;;13.55;4.15;;;;;;;13.76;77.93;103035.88;4996891;28;20038;-74
2021/09/01 03:09:32;;;;;;;13.40;4.13;;;;;;;13.74;77.67;103041.34;4996498;28;20041;-74
2021/09/01 03:11:57;;;;;;;12.38;4.28;;;;;;;13.73;77.60;103028.06;4995481;28;20120;-74
2021/09/01 03:14:23;;;;;;;12.45;3.85;;;;;;;13.72;78.03;103026.38;4996104;28;20490;-74
2021/09/01 03:16:48;;;;;;;11.23;3.85;;;;;;;13.71;78.13;103036.19;4995466;28;20157;-74
2021/09/01 03:19:13;;;;;;;12.93;3.88;;;;;;;13.70;78.63;103029.16;5010984;28;20030;-74
2021/09/01 03:21:40;;;;;;;11.93;4.40;;;;;;;13.70;78.74;103034.50;4995769;28;20030;-74
2021/09/01 03:24:05;;;;;;;13.27;4.40;;;;;;;13.71;78.82;103035.34;4995551;28;20038;-74
2021/09/01 03:26:32;;;;;;;13.73;3.97;;;;;;;13.70;78.90;103026.47;4995752;28;20530;-74
2021/09/01 03:28:59;;;;;;;16.95;4.95;;;;;;;13.69;78.41;103030.09;4995452;28;20222;-74
2021/09/01 03:31:25;;;;;;;12.45;3.90;;;;;;;13.67;78.86;103032.00;4996013;28;20061;-74
2021/09/01 03:33:50;;;;;;;14.02;3.85;;;;;;;13.66;78.56;103029.44;4995385;28;20064;-74
2021/09/01 03:36:15;;;;;;;12.73;4.18;;;;;;;13.64;78.32;103026.88;4995690;28;20364;-73
2021/09/01 03:38:41;;;;;;;13.90;4.20;;;;;;;13.65;78.83;103030.44;4995436;28;20065;-75
2021/09/01 03:41:06;;;;;;;18.50;4.50;;;;;;;13.64;79.60;103036.72;4995731;28;20050;-74
2021/09/01 03:43:32;;;;;;;9.95;3.65;;;;;;;13.62;80.10;103030.63;4995187;28;20046;-74
2021/09/01 03:45:57;;;;;;;14.20;4.68;;;;;;;13.60;79.45;103036.09;4994958;28;20034;-74
2021/09/01 03:48:22;;;;;;;13.25;3.97;;;;;;;13.59;79.81;103031.69;4995582;28;20038;-74
2021/09/01 03:50:48;;;;;;;15.90;4.43;;;;;;;13.59;79.98;103021.00;4995065;28;20038;-74
2021/09/01 03:53:13;;;;;;;10.85;4.00;;;;;;;13.58;80.02;103022.81;4995250;28;20120;-74
2021/09/01 03:55:39;;;;;;;14.73;4.53;;;;;;;13.57;80.28;103026.44;4995445;28;20038;-74
2021/09/01 03:58:05;;;;;;;10.48;3.88;;;;;;;13.56;79.50;103037.25;4993538;28;20044;-74
2021/09/01 04:00:30;;;;;;;13.30;4.95;;;;;;;13.55;79.94;103030.19;4995375;28;20398;-74
2021/09/01 04:02:56;;;;;;;15.43;4.15;;;;;;;13.53;79.96;103038.31;4994568;28;20372;-74
2021/09/01 04:05:21;;;;;;;11.93;4.00;;;;;;;13.52;80.37;103036.59;4995519;28;20086;-74
2021/09/01 04:07:46;;;;;;;12.43;4.60;;;;;;;13.53;80.22;103034.81;4994480;28;20042;-75
2021/09/01 04:10:12;;;;;;;14.65;4.25;;;;;;;13.54;81.12;103036.50;4995292;28;20045;-74
2021/09/01 04:12:37;;;;;;;15.38;4.53;;;;;;;13.52;80.94;103031.25;4992855;28;20037;-73
2021/09/01 04:15:04;;;;;;;12.35;4.30;;;;;;;13.52;80.98;103031.25;4994712;28;20225;-74
2021/09/01 04:17:31;;;;;;;10.35;4.03;;;;;;;13.52;81.17;103033.06;5010425;28;20040;-74
2021/09/01 04:19:56;;;;;;;16.30;4.40;;;;;;;13.52;81.34;103030.41;4994503;28;20032;-74
2021/09/01 04:22:22;;;;;;;14.70;4.22;;;;;;;13.52;81.72;103031.25;4994956;28;20113;-74
2021/09/01 04:24:47;;;;;;;15.57;4.00;;;;;;;13.52;80.53;103030.41;4994486;28;20042;-75
2021/09/01 04:27:12;;;;;;;15.57;4.25;;;;;;;13.52;80.37;103039.28;4994840;28;20045;-74
2021/09/01 04:29:38;;;;;;;14.35;3.88;;;;;;;13.53;80.52;103041.00;4994842;28;20069;-74
2021/09/01 04:32:03;;;;;;;13.63;4.13;;;;;;;13.53;81.27;103037.47;4994087;28;20042;-74
2021/09/01 04:34:29;;;;;;;11.63;4.07;;;;;;;13.53;81.01;103034.81;4994883;28;20030;-74
2021/09/01 04:36:54;;;;;;;11.32;3.97;;;;;;;13.52;81.22;103041.94;4994291;28;20050;-74
2021/09/01 04:39:20;;;;;;;18.98;4.20;;;;;;;13.52;80.92;103046.44;4994667;28;20042;-74
2021/09/01 04:41:45;;;;;;;11.70;4.45;;;;;;;13.51;81.44;103040.25;4994822;28;20046;-74
2021/09/01 04:44:10;;;;;;;11.60;4.20;;;;;;;13.51;81.83;103042.03;5008957;28;20038;-74
2021/09/01 04:46:36;;;;;;;11.35;4.28;;;;;;;13.49;81.33;103036.81;4993413;28;20045;-74
2021/09/01 04:49:01;;;;;;;14.55;4.78;;;;;;;13.50;81.83;103040.34;4994312;28;20044;-74
2021/09/01 04:51:26;;;;;;;14.23;4.68;;;;;;;13.48;82.26;103039.59;4994641;28;20038;-74
2021/09/01 04:53:52;;;;;;;10.35;3.85;;;;;;;13.48;82.40;103032.44;4993445;28;20078;-74
2021/09/01 04:56:17;;;;;;;16.67;4.75;;;;;;;13.48;82.28;103032.44;4994268;28;20443;-74
2021/09/01 04:58:42;;;;;;;16.70;4.22;;;;;;;13.48;81.97;103037.78;4994468;28;20455;-74
2021/09/01 05:01:08;;;;;;;18.15;4.45;;;;;;;13.47;82.10;103043.25;4993762;28;20242;-74
2021/09/01 05:03:33;;;;;;;11.95;4.63;;;;;;;13.48;82.35;103039.59;4994309;28;20034;-74
2021/09/01 05:05:58;;;;;;;11.65;3.95;;;;;;;13.47;82.31;103041.41;4994027;28;20031;-74
2021/09/01 05:08:24;;;;;;;14.68;4.57;;;;;;;13.48;82.24;103039.59;4994224;28;20037;-74
2021/09/01 05:10:49;;;;;;;16.23;4.35;;;;;;;13.49;82.54;103042.16;4994014;28;20122;-74
2021/09/01 05:13:15;;;;;;;11.52;4.25;;;;;;;13.49;82.14;103046.66;4993851;28;20069;-74
2021/09/01 05:15:40;;;;;;;16.85;4.45;;;;;;;13.50;82.56;103043.03;4994150;28;20038;-74
2021/09/01 05:18:06;;;;;;;13.27;4.15;;;;;;;13.50;82.27;103043.88;4993331;28;20050;-74
2021/09/01 05:20:38;;;;;;;12.90;4.10;;;;;;;13.51;82.20;103044.72;4994102;28;20034;-74
2021/09/01 05:23:06;;;;;;;15.57;4.35;;;;;;;13.51;81.83;103050.06;4993428;28;20052;-74
2021/09/01 05:25:52;;;;;;;13.98;3.83;;;;;;;13.53;81.92;103048.16;4994366;28;20109;-74
2021/09/01 05:28:24;;;;;;;11.23;4.10;;;;;;;13.56;82.41;103045.28;4993945;28;20090;-74
2021/09/01 05:30:51;;;;;;;15.00;4.45;;;;;;;13.58;82.25;103049.56;4993907;28;20034;-74
2021/09/01 05:33:19;;;;;;;11.40;3.83;;;;;;;13.61;82.36;103050.31;4992916;28;20038;-74
2021/09/01 05:35:49;;;;;;;16.25;6.28;;;;;;;13.62;82.18;103047.53;4993563;28;20084;-74
2021/09/01 05:38:17;;;;;;;15.82;4.60;;;;;;;13.65;82.23;103052.66;4993068;28;20070;-75
2021/09/01 05:40:43;;;;;;;11.95;4.03;;;;;;;13.68;82.14;103049.78;4993678;28;20037;-74
2021/09/01 05:43:09;;;;;;;17.08;4.53;;;;;;;13.70;81.46;103050.56;4993127;28;20043;-74
2021/09/01 05:45:35;;;;;;;12.43;3.75;;;;;;;13.74;81.93;103051.19;4993998;28;20030;-74
2021/09/01 05:48:01;;;;;;;11.65;4.20;;;;;;;13.77;82.04;103064.34;4992927;28;20039;-74
2021/09/01 05:50:28;;;;;;;10.90;4.28;;;;;;;13.81;81.76;103055.16;4993327;28;20053;-74
2021/09/01 05:52:55;;;;;;;8.27;3.50;;;;;;;13.84;81.87;103049.59;4993384;28;20379;-74
2021/09/01 05:55:22;;;;;;;11.98;3.92;;;;;;;13.87;82.10;103049.38;4993700;28;20034;-74
2021/09/01 05:57:51;;;;;;;10.32;4.05;;;;;;;13.92;81.90;103049.03;4993153;28;20042;-74
2021/09/01 06:00:16;;;;;;;13.32;3.95;;;;;;;14.00;81.82;103053.84;4992469;28;20521;-74
2021/09/01 06:03:17;;;;;;;13.15;4.13;;;;;;;14.08;81.49;103059.53;4993345;28;20066;-74
2021/09/01 06:05:45;;;;;;;12.98;4.68;;;;;;;14.16;81.20;103059.84;4993569;28;20522;-74
2021/09/01 06:08:11;;;;;;;11.20;4.45;;;;;;;14.24;81.29;103054.81;4992930;28;20363;-74
2021/09/01 06:10:37;;;;;;;17.92;4.40;;;;;;;14.34;81.23;103068.38;4993512;28;20042;-74
2021/09/01 06:13:10;;;;;;;9.80;4.28;;;;;;;14.40;81.41;103062.59;4992558;28;20041;-74
2021/09/01 06:15:39;;;;;;;13.35;4.70;;;;;;;14.44;81.54;103066.75;4993345;28;20041;-74
2021/09/01 06:18:04;;;;;;;16.63;4.82;;;;;;;14.47;81.02;103068.38;4992702;28;20030;-74
2021/09/01 06:20:31;;;;;;;10.38;4.40;;;;;;;14.49;81.39;103066.44;4993363;28;20045;-74
2021/09/01 06:22:57;;;;;;;15.40;4.10;;;;;;;14.47;81.07;103065.69;4993186;28;20129;-74
2021/09/01 06:25:23;;;;;;;14.25;4.10;;;;;;;14.48;79.98;103071.91;4992597;28;20057;-75
2021/09/01 06:27:49;;;;;;;10.90;4.05;;;;;;;14.47;80.43;103079.09;4993797;28;20030;-74
2021/09/01 06:30:14;;;;;;;14.23;4.03;;;;;;;14.45;80.25;103076.53;4992532;28;20026;-74
2021/09/01 06:32:40;;;;;;;19.17;4.03;;;;;;;14.39;81.31;103074.28;4993102;28;20037;-74
2021/09/01 06:35:07;;;;;;;16.00;4.68;;;;;;;14.36;81.28;103076.31;4991725;28;20037;-74
2021/09/01 06:37:33;;;;;;;9.20;3.30;;;;;;;14.32;79.21;103080.19;4997337;28;20034;-74
2021/09/01 06:39:58;;;;;;;11.25;4.35;;;;;;;14.35;79.06;103077.28;4997107;28;20506;-74
2021/09/01 06:42:24;;;;;;;17.83;3.58;;;;;;;14.35;80.46;103078.13;4995142;28;20126;-74
2021/09/01 06:44:49;;;;;;;8.38;3.55;;;;;;;14.35;79.99;103077.28;4996948;28;20069;-74
2021/09/01 06:47:15;;;;;;;13.88;4.28;;;;;;;14.37;80.43;103067.31;4996403;28;20471;-74
2021/09/01 06:49:40;;;;;;;19.65;4.20;;;;;;;14.41;80.44;103071.50;4996920;28;20058;-74
2021/09/01 06:52:06;;;;;;;15.05;4.57;;;;;;;14.46;79.55;103072.00;4995908;28;20030;-74
2021/09/01 06:54:31;;;;;;;11.57;3.83;;;;;;;14.53;79.42;103075.13;4996876;28;20463;-74
2021/09/01 06:56:56;;;;;;;15.73;3.85;;;;;;;14.58;78.76;103076.47;4996528;28;20034;-74
2021/09/01 06:59:22;;;;;;;14.15;4.13;;;;;;;14.64;76.98;103072.53;5011079;28;20039;-75
2021/09/01 07:01:47;;;;;;;11.57;3.45;;;;;;;14.69;76.28;103075.75;4996819;28;20145;-74
2021/09/01 07:04:13;;;;;;;12.45;3.50;;;;;;;14.70;77.66;103073.91;4996112;28;20046;-75
2021/09/01 07:06:38;;;;;;;8.82;3.17;;;;;;;14.70;77.84;103073.91;4996693;28;20503;-74
2021/09/01 07:09:03;;;;;;;11.63;3.22;;;;;;;14.68;76.73;103079.38;4995296;28;20434;-74
2021/09/01 07:11:29;;;;;;;16.27;4.07;;;;;;;14.70;77.41;103077.44;4995641;28;20031;-74
2021/09/01 07:13:54;;;;;;;8.85;3.22;;;;;;;14.69;78.01;103082.91;4996425;28;20402;-73
2021/09/01 07:16:20;;;;;;;15.15;3.50;;;;;;;14.67;77.48;103083.03;4995744;28;20026;-73
2021/09/01 07:18:45;;;;;;;15.75;3.88;;;;;;;14.70;77.06;103079.28;4996338;28;20030;-73
2021/09/01 07:21:12;;;;;;;11.77;3.50;;;;;;;14.74;75.56;103078.94;4995984;28;20383;-73
2021/09/01 07:23:38;;;;;;;12.25;4.10;;;;;;;14.78;76.77;103091.16;4996375;28;20042;-73
2021/09/01 07:26:04;;;;;;;13.18;3.80;;;;;;;14.77;77.08;103094.78;4996234;28;20038;-73
2021/09/01 07:28:29;;;;;;;16.20;4.05;;;;;;;14.77;75.23;103093.94;4995536;28;20470;-73
2021/09/01 07:30:55;;;;;;;11.85;3.97;;;;;;;14.81;75.16;103098.97;4996138;28;20034;-74
2021/09/01 07:33:20;;;;;;;11.93;3.78;;;;;;;14.83;75.11;103100.69;4995453;28;20030;-74
2021/09/01 07:35:46;;;;;;;12.55;3.60;;;;;;;14.87;75.23;103103.03;4995871;28;20471;-74
2021/09/01 07:38:12;;;;;;;14.00;3.83;;;;;;;14.92;75.94;103110.72;4995411;28;20034;-74
2021/09/01 07:40:38;;;;;;;13.90;3.85;;;;;;;14.93;76.59;103112.44;4996029;28;20041;-73
2021/09/01 07:43:03;;;;;;;12.48;3.30;;;;;;;14.90;77.50;103116.19;4994675;28;20038;-73
2021/09/01 07:45:30;;;;;;;10.98;3.53;;;;;;;14.89;76.90;103119.84;4994939;28;20266;-74
2021/09/01 07:47:56;;;;;;;10.77;3.20;;;;;;;14.86;76.97;103132.63;4994381;28;20048;-74
2021/09/01 07:50:28;;;;;;;10.00;3.30;;;;;;;14.80;77.42;103134.75;4995037;28;20037;-74
2021/09/01 07:52:53;;;;;;;11.20;4.00;;;;;;;14.73;78.17;103128.13;4995353;28;20495;-74
2021/09/01 07:55:19;;;;;;;17.38;3.83;;;;;;;14.72;79.57;103125.56;4994798;28;20038;-74
2021/09/01 07:57:44;;;;;;;14.30;3.40;;;;;;;14.78;79.92;103126.00;4995341;28;20094;-74
2021/09/01 08:00:11;;;;;;;13.55;3.88;;;;;;;14.98;79.90;103132.56;4995087;28;20093;-74
2021/09/01 08:02:37;;;;;;;10.98;3.25;;;;;;;15.33;79.33;103128.22;4995188;28;20479;-74
2021/09/01 08:05:04;;;;;;;17.08;3.72;;;;;;;15.74;77.37;103136.84;4995353;28;20070;-74
2021/09/01 08:07:29;;;;;;;11.35;3.20;;;;;;;16.05;75.65;103129.97;4994743;28;20073;-74
2021/09/01 08:09:54;;;;;;;10.40;3.05;;;;;;;16.25;74.62;103138.31;4995426;28;20054;-74
2021/09/01 08:12:21;;;;;;;13.57;2.80;;;;;;;16.35;73.81;103141.97;4994701;28;20038;-74
2021/09/01 08:14:46;;;;;;;7.38;2.70;;;;;;;16.44;73.06;103145.78;4995070;28;20045;-73
2021/09/01 08:17:13;;;;;;;10.85;3.20;;;;;;;16.40;73.14;103147.84;4995073;28;20030;-74
2021/09/01 08:19:40;;;;;;;8.30;2.60;;;;;;;16.32;72.93;103151.13;4994942;28;20053;-73
2021/09/01 08:22:05;;;;;;;7.60;2.75;;;;;;;16.21;74.52;103153.78;4994874;28;20034;-74
2021/09/01 08:24:30;;;;;;;5.70;2.22;;;;;;;16.14;76.26;103163.31;5009964;28;20042;-73
2021/09/01 08:26:56;;;;;;;7.03;2.50;;;;;;;16.22;76.34;103160.88;4995145;28;20069;-74
2021/09/01 08:29:21;;;;;;;6.22;2.35;;;;;;;16.37;76.74;103161.50;4994348;28;20391;-74
2021/09/01 08:31:47;;;;;;;8.68;2.72;;;;;;;16.52;75.45;103160.28;4995011;28;20054;-74
2021/09/01 08:34:12;;;;;;;9.02;2.63;;;;;;;16.74;74.63;103170.19;4994946;28;20463;-74
2021/09/01 08:36:37;;;;;;;13.05;2.83;;;;;;;16.71;73.38;103173.13;4994383;28;20088;-73
2021/09/01 08:39:03;;;;;;;5.72;2.25;;;;;;;16.91;73.48;103171.56;4994761;28;20117;-73
2021/09/01 08:41:31;;;;;;;8.93;2.30;;;;;;;16.99;72.28;103181.69;4994404;28;20042;-74
2021/09/01 08:43:58;;;;;;;4.60;1.90;;;;;;;17.16;72.94;103169.53;4995057;28;20061;-74
2021/09/01 08:46:24;;;;;;;5.13;2.03;;;;;;;17.23;72.05;103176.13;4994239;28;20041;-73
2021/09/01 08:48:51;;;;;;;5.85;2.22;;;;;;;17.18;70.91;103181.06;4994808;28;20054;-74
2021/09/01 08:51:17;;;;;;;4.57;2.00;;;;;;;17.19;72.64;103179.22;4994768;28;20062;-73
2021/09/01 08:53:43;;;;;;;5.68;1.95;;;;;;;17.07;68.80;103175.69;4994229;28;20129;-73
2021/09/01 08:56:09;;;;;;;7.40;2.05;;;;;;;17.17;70.14;103176.63;4994597;28;20037;-73
2021/09/01 08:58:34;;;;;;;6.03;1.90;;;;;;;17.26;70.65;103172.34;4993547;28;20034;-74
2021/09/01 09:01:00;;;;;;;6.63;2.00;;;;;;;17.15;71.27;103172.34;4994372;28;20140;-74
2021/09/01 09:03:25;;;;;;;6.95;2.00;;;;;;;17.03;70.92;103171.53;4993591;28;20046;-74
2021/09/01 09:05:51;;;;;;;5.55;2.22;;;;;;;16.97;71.94;103169.34;4994391;28;20132;-74
2021/09/01 09:08:16;;;;;;;6.32;2.17;;;;;;;16.89;72.90;103170.81;4994050;28;20026;-73
2021/09/01 09:10:44;;;;;;;4.63;2.00;;;;;;;16.92;73.20;103167.03;4993723;28;20035;-73
2021/09/01 09:13:09;;;;;;;5.25;2.15;;;;;;;16.89;73.28;103167.28;4994243;28;20034;-73
2021/09/01 09:15:36;;;;;;;7.50;2.45;;;;;;;16.85;73.31;103172.00;4993549;28;20052;-74
2021/09/01 09:18:03;;;;;;;6.90;2.13;;;;;;;16.88;72.29;103163.75;4994373;28;20038;-74
2021/09/01 09:20:33;;;;;;;7.57;2.55;;;;;;;17.03;71.08;103158.06;4993415;28;20039;-73
2021/09/01 09:23:06;;;;;;;14.20;3.45;;;;;;;17.08;70.35;103163.94;4993870;28;20089;-73
2021/09/01 09:25:33;;;;;;;14.93;3.33;;;;;;;17.49;69.62;103161.50;4993471;28;20459;-74
2021/09/01 09:28:00;;;;;;;10.63;3.20;;;;;;;18.24;67.92;103163.22;4994008;28;20062;-73
2021/09/01 09:30:29;;;;;;;6.45;2.65;;;;;;;18.90;65.97;103161.06;4993310;28;20036;-74
2021/09/01 09:33:00;;;;;;;7.82;2.10;;;;;;;19.07;62.27;103155.00;4993964;28;20045;-73
2021/09/01 09:35:47;;;;;;;7.00;2.40;;;;;;;19.25;62.70;103157.88;4993249;28;20073;-74
2021/09/01 09:38:14;;;;;;;6.53;1.90;;;;;;;20.24;60.84;103162.22;4993975;28;20033;-74
2021/09/01 09:40:39;;;;;;;4.93;2.15;;;;;;;21.27;56.43;103167.56;4993024;28;20506;-74
2021/09/01 09:43:19;;;;;;;3.90;1.63;;;;;;;22.05;52.12;103158.75;4993795;28;20122;-73
2021/09/01 09:45:46;;;;;;;5.47;1.80;;;;;;;23.69;47.21;103152.16;4992832;28;20168;-73
2021/09/01 09:48:12;;;;;;;3.15;1.58;;;;;;;24.27;44.12;103148.38;4993621;28;20030;-73
2021/09/01 09:50:48;;;;;;;3.95;1.60;;;;;;;23.34;47.59;103155.06;4992840;28;20062;-74
2021/09/01 09:53:28;;;;;;;2.88;1.50;;;;;;;22.58;49.59;103153.31;4993126;28;20136;-73
2021/09/01 09:56:05;;;;;;;4.43;1.40;;;;;;;21.58;51.78;103153.66;4993371;28;20415;-74
2021/09/01 09:58:34;;;;;;;7.07;1.77;;;;;;;20.87;52.94;103156.16;4992881;28;20053;-73
2021/09/01 10:01:03;;;;;;;2.30;1.50;;;;;;;20.61;55.59;103150.53;4993080;28;20050;-73
2021/09/01 10:03:30;;;;;;;5.65;1.50;;;;;;;20.60;53.64;103148.84;4993085;28;20031;-74
2021/09/01 10:05:56;;;;;;;4.35;1.45;;;;;;;20.33;54.66;103145.13;4993479;28;20463;-74
2021/09/01 10:08:21;;;;;;;4.95;1.58;;;;;;;20.11;54.70;103143.63;4993100;28;20042;-74
2021/09/01 10:10:47;;;;;;;3.53;1.65;;;;;;;20.15;56.39;103144.19;4991994;28;20035;-74
2021/09/01 10:13:13;;;;;;;3.63;1.60;;;;;;;20.62;54.89;103138.75;4992993;28;20475;-73
2021/09/01 10:15:39;;;;;;;3.38;1.50;;;;;;;21.26;52.41;103139.63;4992492;28;20423;-74
2021/09/01 10:18:06;;;;;;;3.45;1.60;;;;;;;21.47;52.32;103133.91;4993241;28;20505;-74
2021/09/01 10:20:33;;;;;;;4.63;1.70;;;;;;;21.90;51.27;103134.09;4992550;28;20030;-74
2021/09/01 10:23:04;;;;;;;4.15;1.60;;;;;;;22.24;50.83;103125.13;4992824;28;20034;-73
2021/09/01 10:25:50;;;;;;;3.97;1.40;;;;;;;21.83;51.14;103136.59;4992514;28;20066;-76
2021/09/01 10:28:34;;;;;;;4.45;1.70;;;;;;;21.53;51.81;103139.72;4993908;28;20110;-74
2021/09/01 10:31:02;;;;;;;3.13;1.85;;;;;;;21.84;51.14;103134.75;4993264;28;20475;-74
2021/09/01 10:33:51;;;;;;;5.22;1.83;;;;;;;22.17;49.33;103127.66;4993408;28;20150;-73
2021/09/01 10:36:22;;;;;;;5.13;1.77;;;;;;;22.63;49.47;103124.69;4993201;28;20030;-74
2021/09/01 10:38:48;;;;;;;4.50;1.83;;;;;;;22.62;48.50;103122.97;4993148;28;20034;-74
2021/09/01 10:41:32;;;;;;;2.28;1.50;;;;;;;22.29;50.55;103124.69;4993331;28;20042;-73
2021/09/01 10:44:13;;;;;;;4.95;1.65;;;;;;;21.80;53.21;103134.19;4992749;28;20030;-74
2021/09/01 10:46:50;;;;;;;3.83;1.50;;;;;;;21.51;53.04;103136.31;4992457;28;20438;-75
2021/09/01 10:49:17;;;;;;;2.80;1.65;;;;;;;21.38;53.93;103133.97;4993015;28;20125;-74
2021/09/01 10:51:48;;;;;;;3.85;1.75;;;;;;;20.99;55.89;103137.84;4992347;28;20117;-74
2021/09/01 10:54:31;;;;;;;2.95;1.40;;;;;;;20.55;55.22;103129.50;4993050;28;20043;-74
2021/09/01 10:57:02;;;;;;;6.00;1.60;;;;;;;20.13;56.66;103129.97;4992317;28;20027;-74
2021/09/01 10:59:35;;;;;;;3.55;1.52;;;;;;;19.79;58.70;103125.06;4992813;28;20157;-75
2021/09/01 11:02:09;;;;;;;4.80;1.98;;;;;;;19.38;60.57;103126.06;4993005;28;20054;-74
2021/09/01 11:04:55;;;;;;;6.18;2.10;;;;;;;19.05;61.96;103127.34;4992296;28;20117;-75
2021/09/01 11:07:29;;;;;;;5.53;1.77;;;;;;;18.66;63.51;103125.38;4992430;28;20047;-74
2021/09/01 11:09:57;;;;;;;4.63;1.80;;;;;;;18.59;63.81;103126.06;4992108;28;20069;-73
2021/09/01 11:12:24;;;;;;;4.25;1.98;;;;;;;18.69;64.73;103118.84;4992719;28;20105;-73
2021/09/01 11:14:51;;;;;;;6.57;1.85;;;;;;;18.84;62.82;103124.72;4992063;28;20030;-74
2021/09/01 11:17:18;;;;;;;4.22;1.77;;;;;;;19.15;62.25;103119.22;4992615;28;20037;-73
2021/09/01 11:19:50;;;;;;;7.05;2.05;;;;;;;19.44;61.39;103119.25;4992138;28;20089;-74